sensor_id;sensor_type;location;lat;lon;timestamp;P1;durP1;ratioP1;P2;durP2;ratioP2
46463;SDS011;32161;48.148;-1.554;2023-05-24T00:01:31;10.98;;;2.60;;
46463;SDS011;32161;48.148;-1.554;2023-05-24T00:03:59;12.68;;;2.70;;
46463;SDS011;32161;48.148;-1.554;2023-05-24T00:06:26;16.88;;;2.42;;
46463;SDS011;32161;48.148;-1.554;2023-05-24T00:08:54;12.02;;;1.98;;
46463;SDS011;32161;48.148;-1.554;2023-05-24T00:11:23;9.77;;;2.38;;
46463;SDS011;32161;48.148;-1.554;2023-05-24T00:13:51;9.57;;;2.67;;
46463;SDS011;32161;48.148;-1.554;2023-05-24T00:16:19;10.82;;;2.20;;
46463;SDS011;32161;48.148;-1.554;2023-05-24T00:18:47;8.40;;;2.13;;
46463;SDS011;32161;48.148;-1.554;2023-05-24T00:21:14;15.35;;;2.42;;
46463;SDS011;32161;48.148;-1.554;2023-05-24T00:23:42;10.15;;;2.88;;
46463;SDS011;32161;48.148;-1.554;2023-05-24T00:26:10;8.88;;;2.28;;
46463;SDS011;32161;48.148;-1.554;2023-05-24T00:28:39;12.05;;;2.60;;
46463;SDS011;32161;48.148;-1.554;2023-05-24T00:31:06;10.00;;;2.42;;
46463;SDS011;32161;48.148;-1.554;2023-05-24T00:33:34;9.43;;;2.10;;
46463;SDS011;32161;48.148;-1.554;2023-05-24T00:36:01;5.28;;;1.95;;
46463;SDS011;32161;48.148;-1.554;2023-05-24T00:38:30;8.52;;;2.65;;
46463;SDS011;32161;48.148;-1.554;2023-05-24T00:40:57;18.42;;;4.05;;
46463;SDS011;32161;48.148;-1.554;2023-05-24T00:43:25;7.78;;;2.00;;
46463;SDS011;32161;48.148;-1.554;2023-05-24T00:45:58;6.70;;;1.98;;
46463;SDS011;32161;48.148;-1.554;2023-05-24T00:48:41;13.02;;;1.90;;
46463;SDS011;32161;48.148;-1.554;2023-05-24T00:51:10;8.15;;;2.10;;
46463;SDS011;32161;48.148;-1.554;2023-05-24T00:53:40;4.03;;;2.03;;
46463;SDS011;32161;48.148;-1.554;2023-05-24T00:56:11;5.30;;;1.92;;
46463;SDS011;32161;48.148;-1.554;2023-05-24T00:58:41;4.40;;;1.98;;
46463;SDS011;32161;48.148;-1.554;2023-05-24T01:01:11;8.73;;;2.80;;
46463;SDS011;32161;48.148;-1.554;2023-05-24T01:03:38;8.07;;;2.00;;
46463;SDS011;32161;48.148;-1.554;2023-05-24T01:06:06;7.88;;;2.55;;
46463;SDS011;32161;48.148;-1.554;2023-05-24T01:08:50;9.60;;;2.65;;
46463;SDS011;32161;48.148;-1.554;2023-05-24T01:11:41;6.63;;;3.00;;
46463;SDS011;32161;48.148;-1.554;2023-05-24T01:14:21;5.97;;;1.85;;
46463;SDS011;32161;48.148;-1.554;2023-05-24T01:16:58;6.53;;;1.95;;
46463;SDS011;32161;48.148;-1.554;2023-05-24T01:19:42;9.68;;;2.15;;
46463;SDS011;32161;48.148;-1.554;2023-05-24T01:22:28;10.07;;;3.25;;
46463;SDS011;32161;48.148;-1.554;2023-05-24T01:25:22;10.38;;;2.10;;
46463;SDS011;32161;48.148;-1.554;2023-05-24T01:28:13;7.50;;;2.42;;
46463;SDS011;32161;48.148;-1.554;2023-05-24T01:30:43;4.33;;;1.60;;
46463;SDS011;32161;48.148;-1.554;2023-05-24T01:33:11;9.23;;;3.92;;
46463;SDS011;32161;48.148;-1.554;2023-05-24T01:35:39;6.45;;;2.08;;
46463;SDS011;32161;48.148;-1.554;2023-05-24T01:38:07;4.57;;;1.83;;
46463;SDS011;32161;48.148;-1.554;2023-05-24T01:40:36;8.90;;;2.38;;
46463;SDS011;32161;48.148;-1.554;2023-05-24T01:43:09;9.77;;;2.13;;
46463;SDS011;32161;48.148;-1.554;2023-05-24T01:45:49;12.38;;;2.15;;
46463;SDS011;32161;48.148;-1.554;2023-05-24T01:48:30;8.00;;;2.60;;
46463;SDS011;32161;48.148;-1.554;2023-05-24T01:51:08;8.35;;;2.30;;
46463;SDS011;32161;48.148;-1.554;2023-05-24T01:53:43;6.05;;;2.30;;
46463;SDS011;32161;48.148;-1.554;2023-05-24T01:56:14;6.43;;;2.05;;
46463;SDS011;32161;48.148;-1.554;2023-05-24T01:58:46;12.57;;;2.17;;
46463;SDS011;32161;48.148;-1.554;2023-05-24T02:01:16;9.13;;;2.65;;
46463;SDS011;32161;48.148;-1.554;2023-05-24T02:03:44;3.72;;;1.60;;
46463;SDS011;32161;48.148;-1.554;2023-05-24T02:06:12;5.65;;;1.77;;
46463;SDS011;32161;48.148;-1.554;2023-05-24T02:08:40;5.22;;;2.03;;
46463;SDS011;32161;48.148;-1.554;2023-05-24T02:11:08;5.70;;;1.70;;
46463;SDS011;32161;48.148;-1.554;2023-05-24T02:13:35;7.65;;;1.75;;
46463;SDS011;32161;48.148;-1.554;2023-05-24T02:16:04;5.82;;;1.88;;
46463;SDS011;32161;48.148;-1.554;2023-05-24T02:18:32;9.20;;;1.98;;
46463;SDS011;32161;48.148;-1.554;2023-05-24T02:20:59;6.03;;;2.03;;
46463;SDS011;32161;48.148;-1.554;2023-05-24T02:23:27;5.55;;;1.70;;
46463;SDS011;32161;48.148;-1.554;2023-05-24T02:25:55;8.73;;;2.47;;
46463;SDS011;32161;48.148;-1.554;2023-05-24T02:28:23;6.70;;;1.90;;
46463;SDS011;32161;48.148;-1.554;2023-05-24T02:30:50;5.50;;;1.83;;
46463;SDS011;32161;48.148;-1.554;2023-05-24T02:33:19;6.47;;;2.20;;
46463;SDS011;32161;48.148;-1.554;2023-05-24T02:35:49;6.70;;;1.67;;
46463;SDS011;32161;48.148;-1.554;2023-05-24T02:38:17;13.23;;;2.58;;
46463;SDS011;32161;48.148;-1.554;2023-05-24T02:40:44;7.80;;;2.10;;
46463;SDS011;32161;48.148;-1.554;2023-05-24T02:43:12;9.30;;;2.45;;
46463;SDS011;32161;48.148;-1.554;2023-05-24T02:45:40;6.28;;;1.52;;
46463;SDS011;32161;48.148;-1.554;2023-05-24T02:48:07;6.88;;;1.98;;
46463;SDS011;32161;48.148;-1.554;2023-05-24T02:50:36;6.65;;;1.95;;
46463;SDS011;32161;48.148;-1.554;2023-05-24T02:53:04;4.88;;;2.13;;
46463;SDS011;32161;48.148;-1.554;2023-05-24T02:55:32;9.50;;;2.33;;
46463;SDS011;32161;48.148;-1.554;2023-05-24T02:58:01;5.95;;;1.90;;
46463;SDS011;32161;48.148;-1.554;2023-05-24T03:00:29;5.03;;;1.73;;
46463;SDS011;32161;48.148;-1.554;2023-05-24T03:02:56;5.05;;;1.88;;
46463;SDS011;32161;48.148;-1.554;2023-05-24T03:05:27;12.65;;;1.73;;
46463;SDS011;32161;48.148;-1.554;2023-05-24T03:07:56;8.48;;;2.10;;
46463;SDS011;32161;48.148;-1.554;2023-05-24T03:10:23;5.03;;;2.00;;
46463;SDS011;32161;48.148;-1.554;2023-05-24T03:12:51;6.78;;;1.88;;
46463;SDS011;32161;48.148;-1.554;2023-05-24T03:15:18;5.28;;;1.95;;
46463;SDS011;32161;48.148;-1.554;2023-05-24T03:17:46;8.88;;;1.70;;
46463;SDS011;32161;48.148;-1.554;2023-05-24T03:20:14;7.55;;;1.85;;
46463;SDS011;32161;48.148;-1.554;2023-05-24T03:22:41;4.25;;;1.40;;
46463;SDS011;32161;48.148;-1.554;2023-05-24T03:25:10;7.25;;;2.15;;
46463;SDS011;32161;48.148;-1.554;2023-05-24T03:27:38;9.98;;;2.25;;
46463;SDS011;32161;48.148;-1.554;2023-05-24T03:30:07;7.20;;;2.13;;
46463;SDS011;32161;48.148;-1.554;2023-05-24T03:32:35;4.88;;;2.00;;
46463;SDS011;32161;48.148;-1.554;2023-05-24T03:35:03;4.95;;;1.48;;
46463;SDS011;32161;48.148;-1.554;2023-05-24T03:37:31;5.25;;;1.60;;
46463;SDS011;32161;48.148;-1.554;2023-05-24T03:39:59;9.57;;;2.13;;
46463;SDS011;32161;48.148;-1.554;2023-05-24T03:42:30;3.70;;;1.70;;
46463;SDS011;32161;48.148;-1.554;2023-05-24T03:44:57;9.52;;;1.98;;
46463;SDS011;32161;48.148;-1.554;2023-05-24T03:47:25;5.72;;;1.55;;
46463;SDS011;32161;48.148;-1.554;2023-05-24T03:49:52;7.50;;;1.70;;
46463;SDS011;32161;48.148;-1.554;2023-05-24T03:52:20;6.65;;;2.00;;
46463;SDS011;32161;48.148;-1.554;2023-05-24T03:54:47;7.78;;;2.00;;
46463;SDS011;32161;48.148;-1.554;2023-05-24T03:57:15;8.02;;;1.80;;
46463;SDS011;32161;48.148;-1.554;2023-05-24T03:59:44;6.43;;;1.88;;
46463;SDS011;32161;48.148;-1.554;2023-05-24T04:02:12;2.65;;;1.20;;
46463;SDS011;32161;48.148;-1.554;2023-05-24T04:04:39;9.15;;;1.75;;
46463;SDS011;32161;48.148;-1.554;2023-05-24T04:07:07;2.35;;;1.38;;
46463;SDS011;32161;48.148;-1.554;2023-05-24T04:09:36;3.92;;;1.58;;
46463;SDS011;32161;48.148;-1.554;2023-05-24T04:12:03;5.07;;;1.30;;
46463;SDS011;32161;48.148;-1.554;2023-05-24T04:14:31;5.32;;;1.50;;
46463;SDS011;32161;48.148;-1.554;2023-05-24T04:17:00;6.57;;;2.00;;
46463;SDS011;32161;48.148;-1.554;2023-05-24T04:19:29;9.07;;;2.03;;
46463;SDS011;32161;48.148;-1.554;2023-05-24T04:21:57;6.43;;;2.03;;
46463;SDS011;32161;48.148;-1.554;2023-05-24T04:24:25;3.92;;;1.48;;
46463;SDS011;32161;48.148;-1.554;2023-05-24T04:26:52;4.55;;;1.67;;
46463;SDS011;32161;48.148;-1.554;2023-05-24T04:29:20;4.93;;;1.55;;
46463;SDS011;32161;48.148;-1.554;2023-05-24T04:31:50;9.23;;;1.70;;
46463;SDS011;32161;48.148;-1.554;2023-05-24T04:34:19;6.55;;;1.20;;
46463;SDS011;32161;48.148;-1.554;2023-05-24T04:36:47;6.03;;;2.00;;
46463;SDS011;32161;48.148;-1.554;2023-05-24T04:39:16;3.00;;;1.55;;
46463;SDS011;32161;48.148;-1.554;2023-05-24T04:41:44;4.78;;;1.27;;
46463;SDS011;32161;48.148;-1.554;2023-05-24T04:44:15;3.88;;;1.25;;
46463;SDS011;32161;48.148;-1.554;2023-05-24T04:46:42;2.92;;;1.10;;
46463;SDS011;32161;48.148;-1.554;2023-05-24T04:49:10;5.28;;;1.40;;
46463;SDS011;32161;48.148;-1.554;2023-05-24T04:51:39;5.57;;;1.50;;
46463;SDS011;32161;48.148;-1.554;2023-05-24T04:54:06;8.18;;;2.03;;
46463;SDS011;32161;48.148;-1.554;2023-05-24T04:56:34;5.00;;;1.25;;
46463;SDS011;32161;48.148;-1.554;2023-05-24T04:59:02;9.00;;;2.22;;
46463;SDS011;32161;48.148;-1.554;2023-05-24T05:01:31;4.55;;;1.23;;
46463;SDS011;32161;48.148;-1.554;2023-05-24T05:03:58;3.78;;;1.40;;
46463;SDS011;32161;48.148;-1.554;2023-05-24T05:06:29;4.90;;;1.63;;
46463;SDS011;32161;48.148;-1.554;2023-05-24T05:09:00;4.38;;;1.63;;
46463;SDS011;32161;48.148;-1.554;2023-05-24T05:11:28;4.43;;;1.35;;
46463;SDS011;32161;48.148;-1.554;2023-05-24T05:13:55;6.28;;;1.85;;
46463;SDS011;32161;48.148;-1.554;2023-05-24T05:16:23;3.58;;;2.05;;
46463;SDS011;32161;48.148;-1.554;2023-05-24T05:18:51;6.05;;;1.40;;
46463;SDS011;32161;48.148;-1.554;2023-05-24T05:21:18;5.10;;;1.40;;
46463;SDS011;32161;48.148;-1.554;2023-05-24T05:23:46;6.72;;;1.50;;
46463;SDS011;32161;48.148;-1.554;2023-05-24T05:26:15;5.60;;;1.75;;
46463;SDS011;32161;48.148;-1.554;2023-05-24T05:28:42;8.15;;;1.40;;
46463;SDS011;32161;48.148;-1.554;2023-05-24T05:31:10;5.63;;;1.38;;
46463;SDS011;32161;48.148;-1.554;2023-05-24T05:33:37;4.25;;;1.30;;
46463;SDS011;32161;48.148;-1.554;2023-05-24T05:36:05;6.95;;;1.60;;
46463;SDS011;32161;48.148;-1.554;2023-05-24T05:38:33;2.25;;;1.10;;
46463;SDS011;32161;48.148;-1.554;2023-05-24T05:41:00;3.95;;;1.17;;
46463;SDS011;32161;48.148;-1.554;2023-05-24T05:43:29;7.07;;;1.40;;
46463;SDS011;32161;48.148;-1.554;2023-05-24T05:45:57;5.85;;;1.27;;
46463;SDS011;32161;48.148;-1.554;2023-05-24T05:48:25;4.13;;;1.52;;
46463;SDS011;32161;48.148;-1.554;2023-05-24T05:50:53;4.63;;;1.40;;
46463;SDS011;32161;48.148;-1.554;2023-05-24T05:53:20;6.47;;;1.45;;
46463;SDS011;32161;48.148;-1.554;2023-05-24T05:55:49;4.05;;;1.10;;
46463;SDS011;32161;48.148;-1.554;2023-05-24T05:58:16;3.80;;;1.17;;
46463;SDS011;32161;48.148;-1.554;2023-05-24T06:00:45;10.48;;;1.30;;
46463;SDS011;32161;48.148;-1.554;2023-05-24T06:03:13;8.60;;;0.95;;
46463;SDS011;32161;48.148;-1.554;2023-05-24T06:05:41;5.32;;;1.23;;
46463;SDS011;32161;48.148;-1.554;2023-05-24T06:08:08;6.20;;;1.63;;
46463;SDS011;32161;48.148;-1.554;2023-05-24T06:10:36;3.13;;;1.20;;
46463;SDS011;32161;48.148;-1.554;2023-05-24T06:13:03;4.28;;;1.35;;
46463;SDS011;32161;48.148;-1.554;2023-05-24T06:15:31;3.80;;;1.27;;
46463;SDS011;32161;48.148;-1.554;2023-05-24T06:18:00;5.05;;;1.40;;
46463;SDS011;32161;48.148;-1.554;2023-05-24T06:20:27;5.03;;;1.00;;
46463;SDS011;32161;48.148;-1.554;2023-05-24T06:22:55;3.97;;;0.90;;
46463;SDS011;32161;48.148;-1.554;2023-05-24T06:25:23;2.60;;;1.10;;
46463;SDS011;32161;48.148;-1.554;2023-05-24T06:27:54;3.47;;;1.08;;
46463;SDS011;32161;48.148;-1.554;2023-05-24T06:30:22;4.70;;;1.20;;
46463;SDS011;32161;48.148;-1.554;2023-05-24T06:32:50;2.33;;;0.90;;
46463;SDS011;32161;48.148;-1.554;2023-05-24T06:35:19;2.75;;;0.77;;
46463;SDS011;32161;48.148;-1.554;2023-05-24T06:37:47;6.80;;;1.23;;
46463;SDS011;32161;48.148;-1.554;2023-05-24T06:40:14;3.33;;;1.10;;
46463;SDS011;32161;48.148;-1.554;2023-05-24T06:42:42;2.72;;;1.38;;
46463;SDS011;32161;48.148;-1.554;2023-05-24T06:45:10;2.97;;;1.52;;
46463;SDS011;32161;48.148;-1.554;2023-05-24T06:47:38;4.82;;;1.05;;
46463;SDS011;32161;48.148;-1.554;2023-05-24T06:50:06;3.60;;;0.90;;
46463;SDS011;32161;48.148;-1.554;2023-05-24T06:52:36;3.00;;;1.00;;
46463;SDS011;32161;48.148;-1.554;2023-05-24T06:55:04;1.83;;;0.95;;
46463;SDS011;32161;48.148;-1.554;2023-05-24T06:57:32;3.40;;;1.23;;
46463;SDS011;32161;48.148;-1.554;2023-05-24T06:59:59;2.10;;;1.00;;
46463;SDS011;32161;48.148;-1.554;2023-05-24T07:02:29;4.05;;;1.05;;
46463;SDS011;32161;48.148;-1.554;2023-05-24T07:04:57;1.88;;;0.90;;
46463;SDS011;32161;48.148;-1.554;2023-05-24T07:07:24;5.28;;;1.23;;
46463;SDS011;32161;48.148;-1.554;2023-05-24T07:09:53;5.63;;;1.25;;
46463;SDS011;32161;48.148;-1.554;2023-05-24T07:12:21;1.52;;;1.05;;
46463;SDS011;32161;48.148;-1.554;2023-05-24T07:14:48;2.25;;;1.13;;
46463;SDS011;32161;48.148;-1.554;2023-05-24T07:17:16;0.85;;;0.80;;
46463;SDS011;32161;48.148;-1.554;2023-05-24T07:19:44;4.25;;;1.00;;
46463;SDS011;32161;48.148;-1.554;2023-05-24T07:22:11;3.95;;;0.93;;
46463;SDS011;32161;48.148;-1.554;2023-05-24T07:24:39;3.28;;;1.10;;
46463;SDS011;32161;48.148;-1.554;2023-05-24T07:27:08;4.72;;;1.02;;
46463;SDS011;32161;48.148;-1.554;2023-05-24T07:29:35;5.38;;;1.10;;
46463;SDS011;32161;48.148;-1.554;2023-05-24T07:32:03;1.73;;;0.63;;
46463;SDS011;32161;48.148;-1.554;2023-05-24T07:34:31;5.20;;;1.25;;
46463;SDS011;32161;48.148;-1.554;2023-05-24T07:36:59;4.15;;;0.90;;
46463;SDS011;32161;48.148;-1.554;2023-05-24T07:39:27;3.47;;;0.90;;
46463;SDS011;32161;48.148;-1.554;2023-05-24T07:41:54;3.28;;;0.70;;
46463;SDS011;32161;48.148;-1.554;2023-05-24T07:44:23;1.58;;;0.70;;
46463;SDS011;32161;48.148;-1.554;2023-05-24T07:46:51;2.42;;;1.15;;
46463;SDS011;32161;48.148;-1.554;2023-05-24T07:49:19;7.82;;;1.20;;
46463;SDS011;32161;48.148;-1.554;2023-05-24T07:51:47;2.35;;;0.80;;
46463;SDS011;32161;48.148;-1.554;2023-05-24T07:54:15;4.38;;;1.30;;
46463;SDS011;32161;48.148;-1.554;2023-05-24T07:56:42;3.63;;;1.02;;
46463;SDS011;32161;48.148;-1.554;2023-05-24T07:59:10;2.83;;;1.40;;
46463;SDS011;32161;48.148;-1.554;2023-05-24T08:01:39;5.95;;;0.80;;
46463;SDS011;32161;48.148;-1.554;2023-05-24T08:04:08;2.97;;;1.00;;
46463;SDS011;32161;48.148;-1.554;2023-05-24T08:06:35;3.67;;;1.45;;
46463;SDS011;32161;48.148;-1.554;2023-05-24T08:09:03;3.42;;;1.15;;
46463;SDS011;32161;48.148;-1.554;2023-05-24T08:11:32;3.50;;;1.10;;
46463;SDS011;32161;48.148;-1.554;2023-05-24T08:14:00;4.93;;;0.90;;
46463;SDS011;32161;48.148;-1.554;2023-05-24T08:16:28;1.98;;;1.08;;
46463;SDS011;32161;48.148;-1.554;2023-05-24T08:18:58;4.47;;;1.20;;
46463;SDS011;32161;48.148;-1.554;2023-05-24T08:21:26;5.40;;;1.75;;
46463;SDS011;32161;48.148;-1.554;2023-05-24T08:23:53;3.38;;;1.13;;
46463;SDS011;32161;48.148;-1.554;2023-05-24T08:26:21;1.92;;;1.35;;
46463;SDS011;32161;48.148;-1.554;2023-05-24T08:28:48;2.45;;;1.05;;
46463;SDS011;32161;48.148;-1.554;2023-05-24T08:31:16;2.35;;;1.02;;
46463;SDS011;32161;48.148;-1.554;2023-05-24T08:33:44;2.28;;;1.27;;
46463;SDS011;32161;48.148;-1.554;2023-05-24T08:36:15;2.20;;;0.85;;
46463;SDS011;32161;48.148;-1.554;2023-05-24T08:38:43;4.80;;;0.88;;
46463;SDS011;32161;48.148;-1.554;2023-05-24T08:41:11;3.40;;;1.00;;
46463;SDS011;32161;48.148;-1.554;2023-05-24T08:43:38;0.60;;;0.60;;
46463;SDS011;32161;48.148;-1.554;2023-05-24T08:46:08;1.95;;;0.75;;
46463;SDS011;32161;48.148;-1.554;2023-05-24T08:48:40;4.57;;;0.90;;
46463;SDS011;32161;48.148;-1.554;2023-05-24T08:51:12;4.15;;;1.10;;
46463;SDS011;32161;48.148;-1.554;2023-05-24T08:53:42;1.08;;;0.63;;
46463;SDS011;32161;48.148;-1.554;2023-05-24T08:56:13;0.90;;;0.75;;
46463;SDS011;32161;48.148;-1.554;2023-05-24T08:58:42;2.35;;;0.80;;
46463;SDS011;32161;48.148;-1.554;2023-05-24T09:01:12;8.70;;;1.10;;
46463;SDS011;32161;48.148;-1.554;2023-05-24T09:03:41;4.15;;;1.00;;
46463;SDS011;32161;48.148;-1.554;2023-05-24T09:06:11;1.52;;;0.80;;
46463;SDS011;32161;48.148;-1.554;2023-05-24T09:08:43;1.48;;;1.00;;
46463;SDS011;32161;48.148;-1.554;2023-05-24T09:11:11;2.03;;;0.80;;
46463;SDS011;32161;48.148;-1.554;2023-05-24T09:13:42;0.80;;;0.63;;
46463;SDS011;32161;48.148;-1.554;2023-05-24T09:16:11;0.65;;;0.60;;
46463;SDS011;32161;48.148;-1.554;2023-05-24T09:18:39;1.85;;;0.77;;
46463;SDS011;32161;48.148;-1.554;2023-05-24T09:21:07;0.68;;;0.68;;
46463;SDS011;32161;48.148;-1.554;2023-05-24T09:23:35;4.18;;;0.63;;
46463;SDS011;32161;48.148;-1.554;2023-05-24T09:26:08;2.35;;;1.00;;
46463;SDS011;32161;48.148;-1.554;2023-05-24T09:28:36;1.88;;;0.80;;
46463;SDS011;32161;48.148;-1.554;2023-05-24T09:31:05;1.95;;;1.00;;
46463;SDS011;32161;48.148;-1.554;2023-05-24T09:33:33;3.90;;;1.38;;
46463;SDS011;32161;48.148;-1.554;2023-05-24T09:36:02;0.70;;;0.70;;
46463;SDS011;32161;48.148;-1.554;2023-05-24T09:38:31;1.63;;;1.05;;
46463;SDS011;32161;48.148;-1.554;2023-05-24T09:41:00;2.45;;;1.10;;
46463;SDS011;32161;48.148;-1.554;2023-05-24T09:43:31;2.35;;;0.65;;
46463;SDS011;32161;48.148;-1.554;2023-05-24T09:46:15;1.45;;;1.35;;
46463;SDS011;32161;48.148;-1.554;2023-05-24T09:51:21;3.97;;;0.93;;
46463;SDS011;32161;48.148;-1.554;2023-05-24T09:53:49;4.10;;;0.93;;
46463;SDS011;32161;48.148;-1.554;2023-05-24T09:56:21;2.47;;;0.98;;
46463;SDS011;32161;48.148;-1.554;2023-05-24T09:58:51;1.55;;;1.00;;
46463;SDS011;32161;48.148;-1.554;2023-05-24T10:01:20;0.95;;;0.80;;
46463;SDS011;32161;48.148;-1.554;2023-05-24T10:03:51;1.83;;;0.75;;
46463;SDS011;32161;48.148;-1.554;2023-05-24T10:06:19;2.88;;;1.27;;
46463;SDS011;32161;48.148;-1.554;2023-05-24T10:08:48;1.92;;;1.05;;
46463;SDS011;32161;48.148;-1.554;2023-05-24T10:11:18;4.50;;;1.23;;
46463;SDS011;32161;48.148;-1.554;2023-05-24T10:13:46;2.90;;;1.05;;
46463;SDS011;32161;48.148;-1.554;2023-05-24T10:16:16;1.33;;;1.00;;
46463;SDS011;32161;48.148;-1.554;2023-05-24T10:18:43;3.58;;;0.80;;
46463;SDS011;32161;48.148;-1.554;2023-05-24T10:21:11;4.00;;;0.90;;
46463;SDS011;32161;48.148;-1.554;2023-05-24T10:23:39;2.20;;;1.40;;
46463;SDS011;32161;48.148;-1.554;2023-05-24T10:26:10;1.17;;;1.02;;
46463;SDS011;32161;48.148;-1.554;2023-05-24T10:28:40;1.20;;;0.82;;
46463;SDS011;32161;48.148;-1.554;2023-05-24T10:31:13;1.95;;;0.82;;
46463;SDS011;32161;48.148;-1.554;2023-05-24T10:33:49;3.03;;;1.25;;
46463;SDS011;32161;48.148;-1.554;2023-05-24T10:36:17;1.95;;;1.00;;
46463;SDS011;32161;48.148;-1.554;2023-05-24T10:38:45;0.80;;;0.80;;
46463;SDS011;32161;48.148;-1.554;2023-05-24T10:41:13;1.95;;;0.77;;
46463;SDS011;32161;48.148;-1.554;2023-05-24T10:43:44;0.80;;;0.80;;
46463;SDS011;32161;48.148;-1.554;2023-05-24T10:46:13;3.65;;;0.98;;
46463;SDS011;32161;48.148;-1.554;2023-05-24T10:48:42;3.33;;;1.10;;
46463;SDS011;32161;48.148;-1.554;2023-05-24T10:51:30;1.80;;;1.30;;
46463;SDS011;32161;48.148;-1.554;2023-05-24T10:54:11;3.35;;;1.50;;
46463;SDS011;32161;48.148;-1.554;2023-05-24T10:56:43;1.10;;;1.00;;
46463;SDS011;32161;48.148;-1.554;2023-05-24T10:59:28;1.02;;;1.02;;
46463;SDS011;32161;48.148;-1.554;2023-05-24T11:02:03;2.97;;;0.90;;
46463;SDS011;32161;48.148;-1.554;2023-05-24T11:04:38;2.30;;;0.75;;
46463;SDS011;32161;48.148;-1.554;2023-05-24T11:07:08;0.70;;;0.70;;
46463;SDS011;32161;48.148;-1.554;2023-05-24T11:09:38;3.40;;;1.13;;
46463;SDS011;32161;48.148;-1.554;2023-05-24T11:12:12;1.00;;;1.00;;
46463;SDS011;32161;48.148;-1.554;2023-05-24T11:14:45;1.02;;;0.80;;
46463;SDS011;32161;48.148;-1.554;2023-05-24T11:17:16;2.22;;;1.13;;
46463;SDS011;32161;48.148;-1.554;2023-05-24T11:19:47;1.90;;;0.93;;
46463;SDS011;32161;48.148;-1.554;2023-05-24T11:22:18;1.10;;;0.93;;
46463;SDS011;32161;48.148;-1.554;2023-05-24T11:24:47;1.13;;;1.02;;
46463;SDS011;32161;48.148;-1.554;2023-05-24T11:27:15;1.10;;;0.73;;
46463;SDS011;32161;48.148;-1.554;2023-05-24T11:29:43;5.25;;;0.90;;
46463;SDS011;32161;48.148;-1.554;2023-05-24T11:32:13;3.63;;;1.00;;
46463;SDS011;32161;48.148;-1.554;2023-05-24T11:34:44;2.25;;;1.13;;
46463;SDS011;32161;48.148;-1.554;2023-05-24T11:37:14;0.88;;;0.88;;
46463;SDS011;32161;48.148;-1.554;2023-05-24T11:39:42;1.77;;;1.20;;
46463;SDS011;32161;48.148;-1.554;2023-05-24T11:42:09;3.30;;;1.05;;
46463;SDS011;32161;48.148;-1.554;2023-05-24T11:44:37;0.85;;;0.82;;
46463;SDS011;32161;48.148;-1.554;2023-05-24T11:47:05;5.85;;;1.30;;
46463;SDS011;32161;48.148;-1.554;2023-05-24T11:49:35;1.77;;;1.15;;
46463;SDS011;32161;48.148;-1.554;2023-05-24T11:52:02;4.47;;;0.90;;
46463;SDS011;32161;48.148;-1.554;2023-05-24T11:54:30;3.20;;;1.00;;
46463;SDS011;32161;48.148;-1.554;2023-05-24T11:56:59;5.57;;;1.15;;
46463;SDS011;32161;48.148;-1.554;2023-05-24T11:59:27;1.58;;;1.13;;
46463;SDS011;32161;48.148;-1.554;2023-05-24T12:01:56;0.90;;;0.85;;
46463;SDS011;32161;48.148;-1.554;2023-05-24T12:04:25;2.25;;;1.02;;
46463;SDS011;32161;48.148;-1.554;2023-05-24T12:06:55;2.50;;;1.00;;
46463;SDS011;32161;48.148;-1.554;2023-05-24T12:09:23;1.92;;;1.05;;
46463;SDS011;32161;48.148;-1.554;2023-05-24T12:11:51;3.83;;;1.05;;
46463;SDS011;32161;48.148;-1.554;2023-05-24T12:14:21;2.60;;;1.27;;
46463;SDS011;32161;48.148;-1.554;2023-05-24T12:16:52;2.58;;;1.00;;
46463;SDS011;32161;48.148;-1.554;2023-05-24T12:19:21;5.38;;;1.38;;
46463;SDS011;32161;48.148;-1.554;2023-05-24T12:21:55;1.70;;;1.27;;
46463;SDS011;32161;48.148;-1.554;2023-05-24T12:24:24;1.58;;;1.48;;
46463;SDS011;32161;48.148;-1.554;2023-05-24T12:26:56;1.95;;;1.10;;
46463;SDS011;32161;48.148;-1.554;2023-05-24T12:29:30;4.38;;;1.30;;
46463;SDS011;32161;48.148;-1.554;2023-05-24T12:32:00;1.60;;;0.90;;
46463;SDS011;32161;48.148;-1.554;2023-05-24T12:34:29;1.63;;;1.50;;
46463;SDS011;32161;48.148;-1.554;2023-05-24T12:36:59;1.95;;;1.70;;
46463;SDS011;32161;48.148;-1.554;2023-05-24T12:39:28;1.23;;;1.03;;
46463;SDS011;32161;48.148;-1.554;2023-05-24T12:41:58;3.70;;;1.13;;
46463;SDS011;32161;48.148;-1.554;2023-05-24T12:44:27;5.60;;;1.20;;
46463;SDS011;32161;48.148;-1.554;2023-05-24T12:46:56;3.08;;;1.48;;
46463;SDS011;32161;48.148;-1.554;2023-05-24T12:49:24;2.63;;;1.60;;
46463;SDS011;32161;48.148;-1.554;2023-05-24T12:51:53;1.88;;;1.20;;
46463;SDS011;32161;48.148;-1.554;2023-05-24T12:54:26;3.30;;;1.27;;
46463;SDS011;32161;48.148;-1.554;2023-05-24T12:56:55;2.58;;;0.80;;
46463;SDS011;32161;48.148;-1.554;2023-05-24T12:59:24;2.20;;;1.20;;
46463;SDS011;32161;48.148;-1.554;2023-05-24T13:01:52;4.18;;;1.83;;
46463;SDS011;32161;48.148;-1.554;2023-05-24T13:04:20;2.00;;;1.23;;
46463;SDS011;32161;48.148;-1.554;2023-05-24T13:06:50;1.88;;;1.65;;
46463;SDS011;32161;48.148;-1.554;2023-05-24T13:09:19;3.80;;;1.50;;
46463;SDS011;32161;48.148;-1.554;2023-05-24T13:11:47;2.40;;;1.40;;
46463;SDS011;32161;48.148;-1.554;2023-05-24T13:14:15;2.65;;;1.67;;
46463;SDS011;32161;48.148;-1.554;2023-05-24T13:16:43;3.03;;;1.70;;
46463;SDS011;32161;48.148;-1.554;2023-05-24T13:19:11;2.15;;;1.70;;
46463;SDS011;32161;48.148;-1.554;2023-05-24T13:21:39;5.38;;;1.65;;
46463;SDS011;32161;48.148;-1.554;2023-05-24T13:24:06;2.63;;;1.42;;
46463;SDS011;32161;48.148;-1.554;2023-05-24T13:26:35;3.67;;;1.73;;
46463;SDS011;32161;48.148;-1.554;2023-05-24T13:29:03;3.67;;;1.50;;
46463;SDS011;32161;48.148;-1.554;2023-05-24T13:31:31;3.08;;;1.60;;
46463;SDS011;32161;48.148;-1.554;2023-05-24T13:33:59;4.13;;;1.95;;
46463;SDS011;32161;48.148;-1.554;2023-05-24T13:36:27;1.63;;;1.52;;
46463;SDS011;32161;48.148;-1.554;2023-05-24T13:38:54;2.47;;;1.63;;
46463;SDS011;32161;48.148;-1.554;2023-05-24T13:41:22;4.35;;;2.25;;
46463;SDS011;32161;48.148;-1.554;2023-05-24T13:43:51;2.80;;;1.60;;
46463;SDS011;32161;48.148;-1.554;2023-05-24T13:46:19;4.05;;;2.00;;
46463;SDS011;32161;48.148;-1.554;2023-05-24T13:48:47;3.35;;;1.67;;
46463;SDS011;32161;48.148;-1.554;2023-05-24T13:51:14;2.42;;;1.60;;
46463;SDS011;32161;48.148;-1.554;2023-05-24T13:53:43;2.58;;;2.20;;
46463;SDS011;32161;48.148;-1.554;2023-05-24T13:56:11;4.82;;;2.53;;
46463;SDS011;32161;48.148;-1.554;2023-05-24T13:58:39;2.53;;;2.33;;
46463;SDS011;32161;48.148;-1.554;2023-05-24T14:01:09;3.67;;;2.20;;
46463;SDS011;32161;48.148;-1.554;2023-05-24T14:03:36;2.30;;;1.77;;
46463;SDS011;32161;48.148;-1.554;2023-05-24T14:06:05;5.40;;;1.98;;
46463;SDS011;32161;48.148;-1.554;2023-05-24T14:08:33;4.90;;;2.42;;
46463;SDS011;32161;48.148;-1.554;2023-05-24T14:11:01;4.25;;;2.05;;
46463;SDS011;32161;48.148;-1.554;2023-05-24T14:13:29;5.03;;;1.67;;
46463;SDS011;32161;48.148;-1.554;2023-05-24T14:15:56;2.13;;;1.90;;
46463;SDS011;32161;48.148;-1.554;2023-05-24T14:18:25;2.13;;;1.80;;
46463;SDS011;32161;48.148;-1.554;2023-05-24T14:20:53;2.83;;;1.80;;
46463;SDS011;32161;48.148;-1.554;2023-05-24T14:23:20;6.18;;;1.63;;
46463;SDS011;32161;48.148;-1.554;2023-05-24T14:25:48;3.45;;;1.88;;
46463;SDS011;32161;48.148;-1.554;2023-05-24T14:28:16;5.95;;;2.20;;
46463;SDS011;32161;48.148;-1.554;2023-05-24T14:30:43;4.07;;;2.28;;
46463;SDS011;32161;48.148;-1.554;2023-05-24T14:33:11;5.18;;;2.50;;
46463;SDS011;32161;48.148;-1.554;2023-05-24T14:35:40;2.67;;;2.05;;
46463;SDS011;32161;48.148;-1.554;2023-05-24T14:38:08;3.33;;;2.25;;
46463;SDS011;32161;48.148;-1.554;2023-05-24T14:40:36;2.95;;;1.70;;
46463;SDS011;32161;48.148;-1.554;2023-05-24T14:43:05;2.75;;;2.25;;
46463;SDS011;32161;48.148;-1.554;2023-05-24T14:45:34;4.10;;;2.03;;
46463;SDS011;32161;48.148;-1.554;2023-05-24T14:48:05;2.88;;;2.10;;